Time;durP1;ratioP1;P1;durP2;ratioP2;P2;SDS_P1;SDS_P2;PMS_P1;PMS_P2;Temp;Humidity;BMP_temperature;BMP_pressure;BME280_temperature;BME280_humidity;BME280_pressure;Samples;Min_cycle;Max_cycle;Signal;HPM_P1;HPM_P2
2024/03/09 00:00:19;;;;;;;4.40;3.07;;;21.10;55.10;;;;;;5036815;28;20472;-69
2024/03/09 00:02:50;;;;;;;5.00;2.93;;;21.10;55.10;;;;;;5037425;28;20414;-70
2024/03/09 00:05:20;;;;;;;4.23;2.80;;;21.10;55.10;;;;;;5038250;28;20433;-70
2024/03/09 00:07:46;;;;;;;4.37;2.77;;;21.10;55.10;;;;;;5037823;28;20425;-71
2024/03/09 00:10:12;;;;;;;4.10;3.17;;;21.10;55.10;;;;;;5037228;28;20426;-71
2024/03/09 00:12:39;;;;;;;4.40;3.63;;;21.10;55.10;;;;;;5037468;28;20461;-70
2024/03/09 00:15:06;;;;;;;3.47;3.13;;;21.10;55.10;;;;;;5037718;28;20294;-69
2024/03/09 00:17:32;;;;;;;3.63;3.27;;;21.10;55.20;;;;;;5036789;28;20410;-70
2024/03/09 00:19:58;;;;;;;6.93;3.63;;;21.10;55.10;;;;;;5037170;28;20576;-70
2024/03/09 00:22:27;;;;;;;3.40;2.83;;;21.10;55.10;;;;;;5037826;28;20705;-71
2024/03/09 00:24:54;;;;;;;4.63;3.53;;;21.10;55.20;;;;;;5036501;28;20430;-71
2024/03/09 00:27:24;;;;;;;3.97;2.87;;;21.10;55.10;;;;;;5037568;28;20407;-70
2024/03/09 00:29:56;;;;;;;4.20;2.90;;;21.10;55.10;;;;;;5037492;28;21008;-69
2024/03/09 00:32:22;;;;;;;4.93;3.20;;;21.10;55.20;;;;;;5037505;28;20410;-70
2024/03/09 00:34:48;;;;;;;3.93;3.00;;;21.10;55.10;;;;;;5037162;28;21027;-71
2024/03/09 00:37:14;;;;;;;5.90;3.60;;;21.10;55.10;;;;;;5037390;28;20411;-71
2024/03/09 00:39:42;;;;;;;4.63;3.80;;;21.10;55.10;;;;;;5037622;28;20484;-71
2024/03/09 00:42:14;;;;;;;4.13;3.00;;;21.10;55.20;;;;;;5038300;28;20172;-70
2024/03/09 00:44:43;;;;;;;3.87;2.90;;;21.10;55.10;;;;;;5037799;28;20438;-71
2024/03/09 00:47:09;;;;;;;4.90;2.80;;;21.10;55.20;;;;;;5037439;28;20394;-71
2024/03/09 00:49:35;;;;;;;3.47;3.17;;;21.10;55.20;;;;;;5037366;28;20940;-71
2024/03/09 00:52:05;;;;;;;3.90;3.07;;;21.00;55.10;;;;;;5037406;28;20168;-70
2024/03/09 00:54:36;;;;;;;4.40;3.40;;;21.00;55.10;;;;;;5037005;28;20275;-68
2024/03/09 00:57:03;;;;;;;4.53;2.80;;;21.00;55.70;;;;;;5037583;28;20779;-69
2024/03/09 00:59:30;;;;;;;4.57;3.00;;;21.00;55.10;;;;;;5037911;28;20505;-70
2024/03/09 01:01:56;;;;;;;3.93;2.60;;;21.00;55.10;;;;;;5037733;28;20468;-70
2024/03/09 01:04:24;;;;;;;3.67;2.97;;;21.00;55.10;;;;;;5037789;28;21109;-68
2024/03/09 01:06:49;;;;;;;2.83;2.53;;;21.00;55.10;;;;;;5037886;28;20414;-70
2024/03/09 01:09:15;;;;;;;3.60;2.67;;;21.00;55.10;;;;;;5037251;28;20902;-70
2024/03/09 01:11:41;;;;;;;3.33;3.03;;;21.00;55.10;;;;;;5037155;28;20591;-69
2024/03/09 01:14:07;;;;;;;3.00;2.63;;;21.00;55.10;;;;;;5035127;28;20195;-69
2024/03/09 01:16:33;;;;;;;3.40;2.50;;;21.00;55.10;;;;;;5037374;28;20179;-71
2024/03/09 01:18:59;;;;;;;2.53;2.33;;;21.00;55.10;;;;;;5038457;28;20596;-70
2024/03/09 01:21:28;;;;;;;4.73;3.10;;;21.00;55.10;;;;;;5035896;28;20204;-70
2024/03/09 01:23:54;;;;;;;3.13;2.83;;;21.00;55.10;;;;;;5036206;28;20427;-71
2024/03/09 01:26:20;;;;;;;3.27;2.80;;;21.00;55.10;;;;;;5036071;28;20456;-68
2024/03/09 01:28:45;;;;;;;3.50;3.07;;;21.00;55.10;;;;;;5035997;28;20415;-71
2024/03/09 01:31:13;;;;;;;4.53;2.97;;;21.00;55.10;;;;;;5035215;28;20712;-70
2024/03/09 01:33:39;;;;;;;3.50;2.90;;;21.00;55.10;;;;;;5036346;28;20832;-71
2024/03/09 01:36:05;;;;;;;4.80;3.50;;;21.00;55.10;;;;;;5036400;28;20464;-69
2024/03/09 01:38:31;;;;;;;3.23;2.80;;;21.00;55.10;;;;;;5036301;28;20164;-70
2024/03/09 01:40:56;;;;;;;2.97;2.40;;;21.00;55.10;;;;;;5034653;28;20462;-71
2024/03/09 01:43:23;;;;;;;3.23;2.63;;;21.00;55.20;;;;;;5035685;28;20196;-71
2024/03/09 01:45:49;;;;;;;3.60;2.97;;;21.00;55.20;;;;;;5036008;28;20225;-70
2024/03/09 01:48:21;;;;;;;4.80;3.30;;;21.00;55.10;;;;;;5035327;28;20438;-71
2024/03/09 01:50:50;;;;;;;3.60;3.03;;;21.00;55.20;;;;;;5035860;28;20483;-70
2024/03/09 01:53:18;;;;;;;4.63;2.70;;;21.00;55.20;;;;;;5035350;28;20434;-69
2024/03/09 01:55:46;;;;;;;3.23;2.93;;;21.00;55.20;;;;;;5036021;28;20576;-70
2024/03/09 01:58:14;;;;;;;4.30;2.70;;;21.00;55.20;;;;;;5035108;28;20505;-70
2024/03/09 02:00:42;;;;;;;3.03;2.70;;;21.00;55.20;;;;;;5034888;28;20465;-70
2024/03/09 02:03:12;;;;;;;3.50;2.90;;;20.90;55.10;;;;;;5035283;28;20846;-71
2024/03/09 02:05:41;;;;;;;3.13;2.40;;;20.90;55.10;;;;;;5035530;28;20403;-69
2024/03/09 02:08:07;;;;;;;3.40;2.70;;;21.00;55.20;;;;;;5035382;28;20414;-70
2024/03/09 02:10:34;;;;;;;3.47;2.40;;;20.90;55.10;;;;;;5036342;28;20421;-71
2024/03/09 02:13:00;;;;;;;2.50;2.20;;;20.90;55.10;;;;;;5035763;28;20842;-71
2024/03/09 02:15:36;;;;;;;2.90;2.40;;;21.00;55.20;;;;;;5036201;28;20430;-70
2024/03/09 02:18:02;;;;;;;2.53;2.33;;;20.90;55.10;;;;;;5035329;28;20399;-70
2024/03/09 02:20:30;;;;;;;3.67;2.97;;;20.90;55.10;;;;;;5035564;28;20488;-70
2024/03/09 02:22:58;;;;;;;3.33;2.80;;;20.90;55.10;;;;;;5035503;28;20194;-70
2024/03/09 02:25:26;;;;;;;3.33;3.10;;;20.90;55.10;;;;;;5035325;28;20406;-71
2024/03/09 02:27:52;;;;;;;2.50;2.20;;;20.90;55.10;;;;;;5034794;28;20513;-69
2024/03/09 02:30:21;;;;;;;3.47;2.57;;;20.90;55.10;;;;;;5035628;28;20445;-70
2024/03/09 02:32:52;;;;;;;3.17;2.83;;;20.90;55.10;;;;;;5034990;28;20270;-69
2024/03/09 02:35:17;;;;;;;3.93;2.63;;;21.00;55.20;;;;;;5035270;28;20434;-71
2024/03/09 02:37:43;;;;;;;3.43;2.63;;;20.90;55.10;;;;;;5034792;28;20944;-71
2024/03/09 02:40:12;;;;;;;3.03;2.57;;;20.90;55.10;;;;;;5034870;28;20192;-70
2024/03/09 02:42:39;;;;;;;3.20;2.40;;;20.90;55.10;;;;;;5035279;28;20167;-70
2024/03/09 02:45:06;;;;;;;3.20;2.40;;;20.90;55.10;;;;;;5034650;28;20497;-71
2024/03/09 02:47:31;;;;;;;3.20;2.77;;;20.90;55.10;;;;;;5035239;28;20422;-68
2024/03/09 02:49:57;;;;;;;3.47;2.70;;;20.90;55.10;;;;;;5034677;28;20553;-71
2024/03/09 02:52:23;;;;;;;2.50;2.30;;;20.90;55.10;;;;;;5035263;28;20248;-69
2024/03/09 02:54:50;;;;;;;3.70;2.47;;;20.90;55.10;;;;;;5034703;28;20278;-71
2024/03/09 02:57:16;;;;;;;3.07;2.53;;;20.90;55.10;;;;;;5035099;28;20433;-70
2024/03/09 02:59:43;;;;;;;2.60;1.93;;;20.90;55.10;;;;;;5035148;28;20458;-71
2024/03/09 03:03:45;;;;;;;4.30;2.60;;;20.90;55.20;;;;;;5034924;28;20409;-70
2024/03/09 03:05:01;;;;;;;2.30;2.10;;;20.90;55.10;;;;;;5034423;28;20442;-70
2024/03/09 03:07:26;;;;;;;2.70;2.10;;;20.90;55.10;;;;;;5035367;28;20418;-71
2024/03/09 03:09:57;;;;;;;3.13;2.37;;;20.90;55.10;;;;;;5034926;28;20263;-70
2024/03/09 03:12:23;;;;;;;2.80;2.37;;;20.90;55.10;;;;;;5035901;28;20187;-70
2024/03/09 03:14:50;;;;;;;2.70;2.33;;;20.90;55.10;;;;;;5034808;28;20811;-69
2024/03/09 03:17:15;;;;;;;2.90;2.40;;;20.90;55.10;;;;;;5035687;28;20440;-70
2024/03/09 03:19:41;;;;;;;2.87;2.53;;;20.90;55.10;;;;;;5034868;28;20977;-71
2024/03/09 03:22:07;;;;;;;2.73;2.10;;;20.90;55.10;;;;;;5035001;28;20245;-69
2024/03/09 03:24:32;;;;;;;2.60;2.30;;;20.90;55.10;;;;;;5034885;28;20234;-70
2024/03/09 03:26:58;;;;;;;3.17;2.33;;;20.90;55.10;;;;;;5034905;28;20701;-71
2024/03/09 03:29:27;;;;;;;2.83;2.50;;;20.90;55.10;;;;;;5034560;28;20172;-71
2024/03/09 03:31:55;;;;;;;3.00;2.60;;;20.90;55.10;;;;;;5034172;28;20179;-69
2024/03/09 03:34:21;;;;;;;2.73;2.43;;;20.90;55.10;;;;;;5034061;28;20509;-71
2024/03/09 03:36:47;;;;;;;3.23;2.40;;;20.90;55.10;;;;;;5034133;28;20410;-70
2024/03/09 03:39:13;;;;;;;3.63;2.40;;;20.90;55.30;;;;;;5034570;28;20417;-70
2024/03/09 03:41:39;;;;;;;2.70;2.40;;;20.90;55.10;;;;;;5034350;28;20204;-71
2024/03/09 03:44:04;;;;;;;2.47;2.20;;;20.90;55.10;;;;;;5035520;28;20202;-70
2024/03/09 03:46:31;;;;;;;2.40;2.20;;;20.90;55.10;;;;;;5037504;28;20179;-70
2024/03/09 03:48:56;;;;;;;3.67;2.20;;;20.90;55.10;;;;;;5038262;28;20211;-71
2024/03/09 03:51:22;;;;;;;2.53;2.07;;;20.90;55.10;;;;;;5035560;28;20492;-68
2024/03/09 03:53:48;;;;;;;3.57;2.90;;;20.90;55.10;;;;;;5037208;28;20202;-71
2024/03/09 03:56:14;;;;;;;2.33;2.10;;;20.90;55.10;;;;;;5037366;28;20664;-70
2024/03/09 03:58:47;;;;;;;2.80;2.20;;;20.90;55.10;;;;;;5037134;28;20429;-71
2024/03/09 04:01:13;;;;;;;2.33;2.13;;;20.90;55.10;;;;;;5037155;28;20489;-71
2024/03/09 04:03:38;;;;;;;2.93;2.63;;;20.80;55.10;;;;;;5036279;28;20471;-70
2024/03/09 04:06:07;;;;;;;2.30;2.00;;;20.90;55.10;;;;;;5037306;28;20433;-67
2024/03/09 04:08:33;;;;;;;2.80;2.17;;;20.80;55.00;;;;;;5036938;28;20544;-71
2024/03/09 04:10:59;;;;;;;3.50;2.53;;;20.90;55.10;;;;;;5037571;28;20415;-71
2024/03/09 04:13:25;;;;;;;2.90;2.23;;;20.80;55.10;;;;;;5037278;28;20438;-70
2024/03/09 04:15:52;;;;;;;2.33;2.10;;;20.90;55.10;;;;;;5037535;28;20418;-71
2024/03/09 04:18:18;;;;;;;2.10;1.90;;;20.80;55.00;;;;;;5036435;28;20203;-72
2024/03/09 04:20:44;;;;;;;3.20;2.40;;;20.80;55.00;;;;;;5036090;28;20541;-68
2024/03/09 04:23:15;;;;;;;3.63;2.53;;;20.80;55.00;;;;;;5036685;28;20557;-70
2024/03/09 04:25:44;;;;;;;2.43;1.90;;;20.90;55.70;;;;;;5035819;28;20160;-70
2024/03/09 04:28:15;;;;;;;2.87;2.37;;;20.80;55.10;;;;;;5037372;28;20406;-68
2024/03/09 04:30:42;;;;;;;3.50;2.70;;;20.80;55.00;;;;;;5037201;28;20433;-70
2024/03/09 04:33:11;;;;;;;2.47;2.07;;;20.80;55.00;;;;;;5036981;28;20418;-70
2024/03/09 04:35:37;;;;;;;2.30;2.10;;;20.80;55.10;;;;;;5036904;28;20418;-72
2024/03/09 04:38:07;;;;;;;2.40;2.20;;;20.80;55.10;;;;;;5037286;28;20418;-71
2024/03/09 04:40:35;;;;;;;2.57;2.37;;;20.80;55.00;;;;;;5037706;28;20450;-72
2024/03/09 04:43:03;;;;;;;2.73;2.20;;;20.80;55.00;;;;;;5037526;28;20406;-70
2024/03/09 04:45:30;;;;;;;3.00;2.40;;;20.80;55.10;;;;;;5037548;28;20410;-71
2024/03/09 04:47:59;;;;;;;2.93;2.63;;;20.80;55.00;;;;;;5037431;28;20415;-70
2024/03/09 04:50:25;;;;;;;2.63;1.80;;;20.80;55.10;;;;;;5036932;28;20486;-72
2024/03/09 04:52:51;;;;;;;2.83;2.10;;;20.80;55.00;;;;;;5036720;28;20463;-71
2024/03/09 04:55:17;;;;;;;2.23;2.00;;;20.80;55.10;;;;;;5036779;28;20501;-70
2024/03/09 04:57:44;;;;;;;2.70;2.30;;;20.80;55.00;;;;;;5037303;28;20258;-72
2024/03/09 05:00:14;;;;;;;2.80;2.20;;;20.80;55.70;;;;;;5037566;28;20500;-71
2024/03/09 05:02:44;;;;;;;3.10;2.23;;;20.80;55.00;;;;;;5037404;28;20411;-71
2024/03/09 05:05:10;;;;;;;3.10;2.10;;;20.80;55.00;;;;;;5036735;28;20972;-72
2024/03/09 05:07:36;;;;;;;2.90;2.30;;;20.80;55.00;;;;;;5036429;28;20498;-71
2024/03/09 05:10:01;;;;;;;2.20;2.00;;;20.80;55.00;;;;;;5036470;28;20457;-71
2024/03/09 05:12:27;;;;;;;3.40;2.80;;;20.80;55.10;;;;;;5037337;28;20267;-71
2024/03/09 05:14:52;;;;;;;2.10;1.90;;;20.80;55.00;;;;;;5037100;28;20257;-71
2024/03/09 05:17:18;;;;;;;3.00;2.30;;;20.80;55.00;;;;;;5036382;28;20184;-71
2024/03/09 05:19:44;;;;;;;3.00;2.13;;;20.80;55.00;;;;;;5034942;28;20203;-70
2024/03/09 05:22:09;;;;;;;3.03;2.10;;;20.80;55.10;;;;;;5036723;28;20251;-70
2024/03/09 05:24:35;;;;;;;2.50;2.30;;;20.80;55.00;;;;;;5036494;28;20207;-71
2024/03/09 05:27:01;;;;;;;2.90;2.17;;;20.80;55.10;;;;;;5036702;28;20444;-71
2024/03/09 05:29:26;;;;;;;2.30;2.10;;;20.80;55.10;;;;;;5036787;28;20183;-72
2024/03/09 05:31:52;;;;;;;3.23;2.00;;;20.80;55.10;;;;;;5035867;28;20190;-70
2024/03/09 05:34:18;;;;;;;2.33;2.07;;;20.80;55.10;;;;;;5036397;28;20200;-70
2024/03/09 05:36:44;;;;;;;2.50;2.30;;;20.80;55.10;;;;;;5036139;28;20186;-70
2024/03/09 05:39:13;;;;;;;2.60;2.17;;;20.80;55.10;;;;;;5035957;28;20839;-71
2024/03/09 05:41:39;;;;;;;2.43;1.87;;;20.80;55.10;;;;;;5035992;28;20219;-71
2024/03/09 05:44:04;;;;;;;2.57;1.83;;;20.80;55.10;;;;;;5035218;28;20500;-70
2024/03/09 05:46:30;;;;;;;3.43;2.57;;;20.80;55.10;;;;;;5035647;28;20180;-71
2024/03/09 05:48:56;;;;;;;2.30;2.10;;;20.80;55.10;;;;;;5035168;28;20183;-71
2024/03/09 05:51:21;;;;;;;3.20;1.90;;;20.80;55.10;;;;;;5035842;28;20184;-71
2024/03/09 05:53:49;;;;;;;3.23;2.07;;;20.80;55.10;;;;;;5035765;28;20534;-70
2024/03/09 05:56:15;;;;;;;2.50;1.90;;;20.70;55.00;;;;;;5035458;28;20262;-72
2024/03/09 05:58:42;;;;;;;2.80;2.50;;;20.80;55.60;;;;;;5035990;28;20425;-71
2024/03/09 06:01:08;;;;;;;2.50;2.23;;;20.70;55.00;;;;;;5035369;28;20479;-70
2024/03/09 06:03:33;;;;;;;2.83;2.00;;;20.70;55.00;;;;;;5035969;28;20434;-71
2024/03/09 06:05:59;;;;;;;2.33;2.13;;;20.80;55.10;;;;;;5034474;28;20187;-71
2024/03/09 06:08:25;;;;;;;3.00;2.73;;;20.70;55.00;;;;;;5035115;28;20168;-71
2024/03/09 06:10:51;;;;;;;2.37;2.07;;;20.70;55.00;;;;;;5035357;28;20771;-71
2024/03/09 06:13:20;;;;;;;2.07;1.90;;;20.70;55.00;;;;;;5034713;28;20199;-71
2024/03/09 06:15:49;;;;;;;2.30;2.10;;;20.80;55.10;;;;;;5034898;28;20421;-69
2024/03/09 06:18:16;;;;;;;2.33;2.03;;;20.80;55.10;;;;;;5033817;28;20924;-70
2024/03/09 06:20:43;;;;;;;2.13;1.73;;;20.70;55.00;;;;;;5032273;28;20458;-71
2024/03/09 06:23:09;;;;;;;2.00;1.73;;;20.80;55.10;;;;;;5032111;28;20415;-71
2024/03/09 06:25:34;;;;;;;2.53;2.20;;;20.80;55.10;;;;;;5032326;28;20413;-70
2024/03/09 06:28:05;;;;;;;2.20;1.70;;;20.80;55.10;;;;;;5031837;28;20406;-71
2024/03/09 06:30:30;;;;;;;2.50;2.03;;;20.80;55.10;;;;;;5030826;28;20186;-72
2024/03/09 06:32:57;;;;;;;3.27;2.70;;;20.80;55.10;;;;;;5031794;28;20418;-70
2024/03/09 06:35:25;;;;;;;2.47;2.10;;;20.80;55.10;;;;;;5032235;28;20183;-71
2024/03/09 06:38:08;;;;;;;2.23;1.77;;;20.80;55.10;;;;;;5032420;28;20413;-71
2024/03/09 06:40:36;;;;;;;3.40;2.30;;;20.80;55.00;;;;;;5032821;28;20480;-70
2024/03/09 06:43:06;;;;;;;2.10;1.80;;;20.80;55.00;;;;;;5032264;28;20960;-71
2024/03/09 06:45:33;;;;;;;2.63;1.93;;;20.80;55.10;;;;;;5032571;28;20417;-71
2024/03/09 06:47:58;;;;;;;2.13;1.90;;;20.80;55.00;;;;;;5032279;28;20502;-72
2024/03/09 06:50:28;;;;;;;1.83;1.73;;;20.80;55.00;;;;;;5032173;28;20441;-71
2024/03/09 06:52:54;;;;;;;2.67;2.33;;;20.80;55.00;;;;;;5032298;28;20627;-70
2024/03/09 06:55:24;;;;;;;2.30;1.97;;;20.80;55.00;;;;;;5032480;28;20472;-70
2024/03/09 06:57:51;;;;;;;3.43;1.87;;;20.90;55.10;;;;;;5032299;28;21299;-71
2024/03/09 07:00:17;;;;;;;3.10;2.03;;;20.90;55.10;;;;;;5032587;28;20457;-70
2024/03/09 07:02:43;;;;;;;2.10;1.90;;;20.90;55.00;;;;;;5031807;28;20406;-70
2024/03/09 07:05:09;;;;;;;3.00;2.30;;;20.90;55.00;;;;;;5032603;28;20426;-70
2024/03/09 07:07:39;;;;;;;1.83;1.50;;;21.00;55.10;;;;;;5033843;28;20553;-68
2024/03/09 07:10:11;;;;;;;2.20;1.73;;;21.00;55.10;;;;;;5033744;28;20468;-69
2024/03/09 07:12:41;;;;;;;1.90;1.50;;;20.90;55.00;;;;;;5034052;28;20422;-70
2024/03/09 07:15:15;;;;;;;2.77;1.67;;;21.00;55.00;;;;;;5033521;28;20418;-70
2024/03/09 07:17:41;;;;;;;1.90;1.60;;;21.00;55.00;;;;;;5033392;28;20402;-71
2024/03/09 07:20:13;;;;;;;2.50;1.60;;;21.00;55.00;;;;;;5036604;28;20470;-68
2024/03/09 07:22:57;;;;;;;3.03;1.93;;;21.00;55.00;;;;;;5036557;28;20402;-71
2024/03/09 07:25:27;;;;;;;2.97;1.97;;;21.00;55.00;;;;;;5037332;28;20402;-71
2024/03/09 07:27:57;;;;;;;2.47;2.00;;;21.10;55.00;;;;;;5037053;28;20425;-71
2024/03/09 07:30:24;;;;;;;1.63;1.53;;;21.10;55.00;;;;;;5037483;28;20410;-71
2024/03/09 07:32:50;;;;;;;2.10;1.90;;;21.10;55.00;;;;;;5036554;28;20888;-71
2024/03/09 07:35:19;;;;;;;2.30;2.10;;;21.10;55.00;;;;;;5035153;28;20430;-71
2024/03/09 07:37:47;;;;;;;2.93;2.50;;;21.10;55.00;;;;;;5035289;28;20179;-71
2024/03/09 07:40:15;;;;;;;2.60;2.33;;;21.10;55.00;;;;;;5034704;28;20515;-71
2024/03/09 07:42:41;;;;;;;3.07;2.13;;;21.10;55.00;;;;;;5034906;28;20909;-71
2024/03/09 07:45:13;;;;;;;2.37;2.17;;;21.10;54.90;;;;;;5040053;28;20437;-72
2024/03/09 07:47:43;;;;;;;2.23;2.03;;;21.10;54.90;;;;;;5055085;28;20410;-72
2024/03/09 07:50:14;;;;;;;3.10;2.00;;;21.10;54.90;;;;;;5055328;28;20764;-71
2024/03/09 07:52:44;;;;;;;2.53;1.80;;;21.10;54.90;;;;;;5055107;28;20473;-71
2024/03/09 07:55:10;;;;;;;2.70;2.20;;;21.10;54.90;;;;;;5055205;28;20441;-72
2024/03/09 07:57:37;;;;;;;3.17;2.20;;;21.10;54.80;;;;;;5052525;28;20508;-71
2024/03/09 08:00:04;;;;;;;2.70;2.20;;;21.10;54.80;;;;;;5053496;28;20520;-70
2024/03/09 08:02:30;;;;;;;2.20;2.00;;;21.10;54.80;;;;;;5053278;28;20418;-69
2024/03/09 08:04:57;;;;;;;2.63;1.80;;;21.10;54.80;;;;;;5053763;28;20536;-71
2024/03/09 08:07:23;;;;;;;2.33;1.87;;;21.10;54.80;;;;;;5053888;28;20899;-70
2024/03/09 08:09:48;;;;;;;1.87;1.67;;;21.10;54.80;;;;;;5054510;28;20410;-70
2024/03/09 08:12:14;;;;;;;2.10;1.90;;;21.10;54.80;;;;;;5054912;28;20206;-70
2024/03/09 08:14:39;;;;;;;3.80;2.30;;;21.20;54.80;;;;;;5053742;28;20309;-71
2024/03/09 08:17:07;;;;;;;2.43;2.23;;;21.20;54.80;;;;;;5055160;28;20253;-69
2024/03/09 08:19:33;;;;;;;2.80;2.30;;;21.20;54.80;;;;;;5053069;28;20248;-69
2024/03/09 08:21:59;;;;;;;2.30;1.90;;;21.20;54.80;;;;;;5054575;28;20514;-67
2024/03/09 08:24:25;;;;;;;2.27;1.90;;;21.20;54.80;;;;;;5054634;28;20433;-70
2024/03/09 08:26:51;;;;;;;2.10;1.90;;;21.20;54.80;;;;;;5054679;28;20646;-70
2024/03/09 08:29:16;;;;;;;2.40;2.00;;;21.20;54.80;;;;;;5054469;28;20426;-68
2024/03/09 08:31:43;;;;;;;2.40;2.20;;;21.20;54.80;;;;;;5055227;28;20175;-69
2024/03/09 08:34:09;;;;;;;2.30;1.97;;;21.20;54.80;;;;;;5054578;28;20199;-70
2024/03/09 08:36:35;;;;;;;2.50;1.93;;;21.20;54.80;;;;;;5054660;28;20441;-69
2024/03/09 08:39:01;;;;;;;2.57;2.07;;;21.30;54.90;;;;;;5054375;28;20438;-70
2024/03/09 08:41:32;;;;;;;3.23;1.80;;;21.20;54.80;;;;;;5054139;28;20495;-69
2024/03/09 08:43:58;;;;;;;2.37;1.90;;;21.20;54.80;;;;;;5054093;28;20205;-69
2024/03/09 08:46:26;;;;;;;2.77;2.17;;;21.30;54.90;;;;;;5052779;28;20465;-70
2024/03/09 08:48:51;;;;;;;2.93;1.70;;;21.30;54.90;;;;;;5054187;28;20409;-70
2024/03/09 08:51:20;;;;;;;2.83;2.47;;;21.30;54.90;;;;;;5053649;28;21307;-69
2024/03/09 08:53:46;;;;;;;2.53;1.80;;;21.30;54.90;;;;;;5054006;28;20221;-70
2024/03/09 08:56:15;;;;;;;3.80;2.13;;;21.30;54.90;;;;;;5054163;28;20521;-70
2024/03/09 08:58:41;;;;;;;2.90;1.93;;;21.30;54.90;;;;;;5053892;28;20175;-70
2024/03/09 09:01:07;;;;;;;3.13;2.57;;;21.30;54.90;;;;;;5053513;28;20822;-69
2024/03/09 09:03:33;;;;;;;3.70;1.80;;;21.30;54.90;;;;;;5054166;28;20195;-68
2024/03/09 09:05:58;;;;;;;3.67;2.33;;;21.30;54.90;;;;;;5054704;28;20174;-69
2024/03/09 09:08:27;;;;;;;4.90;2.30;;;21.30;54.90;;;;;;5053818;28;20432;-69
2024/03/09 09:10:53;;;;;;;2.63;2.30;;;21.30;54.90;;;;;;5053685;28;20178;-69
2024/03/09 09:13:21;;;;;;;2.57;2.00;;;21.30;54.90;;;;;;5052060;28;20587;-69
2024/03/09 09:15:47;;;;;;;2.93;2.13;;;21.30;54.90;;;;;;5053375;28;20410;-69
2024/03/09 09:18:14;;;;;;;2.80;2.43;;;21.30;54.90;;;;;;5053107;28;20598;-69
2024/03/09 09:20:40;;;;;;;3.40;2.37;;;21.30;54.90;;;;;;5053203;28;20187;-70
2024/03/09 09:23:06;;;;;;;3.33;2.33;;;21.30;54.90;;;;;;5053282;28;20492;-68
2024/03/09 09:25:32;;;;;;;4.47;2.40;;;21.30;54.90;;;;;;5054359;28;20540;-69
2024/03/09 09:27:59;;;;;;;3.23;2.43;;;21.30;54.90;;;;;;5062753;28;20174;-68
2024/03/09 09:30:26;;;;;;;3.33;2.30;;;21.30;54.90;;;;;;5058432;28;20496;-68
2024/03/09 09:32:51;;;;;;;2.80;2.57;;;21.30;54.90;;;;;;5069548;28;20474;-70
2024/03/09 09:35:20;;;;;;;2.77;2.27;;;21.30;54.90;;;;;;5056592;28;20440;-68
2024/03/09 09:37:45;;;;;;;3.63;2.10;;;21.20;54.80;;;;;;5063446;28;20178;-70
2024/03/09 09:40:13;;;;;;;2.93;2.30;;;21.30;54.90;;;;;;5065828;28;21113;-69
2024/03/09 09:42:41;;;;;;;3.40;2.60;;;21.30;54.90;;;;;;5054420;28;20192;-70
2024/03/09 09:45:09;;;;;;;5.20;3.00;;;21.30;54.90;;;;;;5031910;28;20521;-70
2024/03/09 09:47:36;;;;;;;6.17;2.30;;;21.30;54.90;;;;;;5046929;28;20495;-69
2024/03/09 09:50:03;;;;;;;4.80;2.20;;;21.30;54.90;;;;;;5059970;28;20413;-69
2024/03/09 09:52:32;;;;;;;3.30;2.10;;;21.30;54.90;;;;;;5066377;28;20962;-69
2024/03/09 09:54:58;;;;;;;3.30;2.30;;;21.30;54.90;;;;;;5055037;28;20524;-69
2024/03/09 09:57:28;;;;;;;2.13;2.00;;;21.30;55.00;;;;;;5071279;28;20413;-69
2024/03/09 09:59:54;;;;;;;3.30;2.33;;;21.30;55.00;;;;;;5061213;28;20435;-69
2024/03/09 10:02:22;;;;;;;4.50;2.50;;;21.30;55.00;;;;;;5064690;28;20400;-69
2024/03/09 10:04:50;;;;;;;2.37;1.83;;;21.20;54.90;;;;;;5054600;28;20194;-69
2024/03/09 10:07:15;;;;;;;3.90;2.23;;;21.20;54.90;;;;;;5058930;28;20420;-70
2024/03/09 10:09:41;;;;;;;4.67;2.47;;;21.20;54.90;;;;;;5062678;28;20417;-68
2024/03/09 10:12:19;;;;;;;7.17;2.13;;;21.20;55.00;;;;;;5055583;28;20213;-70
2024/03/09 10:14:45;;;;;;;2.83;2.03;;;21.30;55.00;;;;;;5039649;28;20273;-70
2024/03/09 10:17:12;;;;;;;4.93;2.30;;;21.20;55.00;;;;;;5063313;28;20577;-70
2024/03/09 10:19:37;;;;;;;2.10;1.90;;;21.20;55.00;;;;;;5052793;28;20564;-70
2024/03/09 10:22:03;;;;;;;3.70;2.37;;;21.20;55.00;;;;;;5065684;28;20425;-71
2024/03/09 10:24:29;;;;;;;3.83;2.57;;;21.20;55.00;;;;;;5054228;28;20253;-70
2024/03/09 10:27:03;;;;;;;2.83;2.40;;;21.20;55.00;;;;;;5065775;28;20171;-71
2024/03/09 10:29:28;;;;;;;2.70;2.00;;;21.20;55.00;;;;;;5060877;28;20216;-71
2024/03/09 10:31:55;;;;;;;3.10;2.80;;;21.20;55.00;;;;;;5057204;28;20487;-71
2024/03/09 10:34:25;;;;;;;2.33;2.13;;;21.20;55.00;;;;;;5067280;28;20198;-69
2024/03/09 10:36:55;;;;;;;4.60;2.43;;;21.20;55.00;;;;;;5056409;28;20492;-68
2024/03/09 10:39:21;;;;;;;2.00;1.80;;;21.20;55.10;;;;;;5060116;28;20799;-70
2024/03/09 10:41:50;;;;;;;2.73;2.10;;;21.20;55.00;;;;;;5063117;28;20458;-70
2024/03/09 10:44:16;;;;;;;2.70;2.47;;;21.20;55.10;;;;;;5054052;28;20182;-70
2024/03/09 10:46:47;;;;;;;3.20;2.40;;;21.20;55.10;;;;;;5067227;28;20492;-70
2024/03/09 10:49:20;;;;;;;3.00;2.67;;;21.20;55.10;;;;;;5058474;28;20166;-70
2024/03/09 10:51:50;;;;;;;3.20;2.33;;;21.20;55.10;;;;;;5058376;28;20770;-70
2024/03/09 10:54:43;;;;;;;3.60;2.37;;;21.20;55.10;;;;;;5070830;28;20439;-71
2024/03/09 10:57:13;;;;;;;2.97;2.10;;;21.20;55.10;;;;;;5062091;28;20475;-70
2024/03/09 10:59:41;;;;;;;3.90;2.57;;;21.20;55.10;;;;;;5062935;28;20508;-68
2024/03/09 11:02:07;;;;;;;2.53;2.10;;;21.20;55.10;;;;;;5069957;28;20791;-71
2024/03/09 11:04:34;;;;;;;4.50;2.20;;;21.20;55.10;;;;;;5057584;28;20421;-71
2024/03/09 11:07:03;;;;;;;5.30;2.37;;;21.20;55.10;;;;;;5068322;28;20397;-70
2024/03/09 11:09:30;;;;;;;4.50;2.20;;;21.20;55.10;;;;;;5064797;28;20495;-69
2024/03/09 11:12:01;;;;;;;2.40;2.20;;;21.20;55.10;;;;;;5060435;28;21234;-70
2024/03/09 11:14:26;;;;;;;1.77;1.63;;;21.20;55.10;;;;;;5070570;28;20477;-70
2024/03/09 11:16:53;;;;;;;2.60;2.10;;;21.20;55.10;;;;;;5059430;28;20462;-70
2024/03/09 11:19:20;;;;;;;2.43;1.90;;;21.20;55.00;;;;;;5058319;28;20219;-71
2024/03/09 11:21:51;;;;;;;5.13;3.00;;;21.20;55.10;;;;;;5059759;28;20448;-71
2024/03/09 11:24:18;;;;;;;2.00;1.80;;;21.20;55.10;;;;;;5057484;28;20429;-71
2024/03/09 11:26:50;;;;;;;2.80;2.40;;;21.30;55.10;;;;;;5070262;28;20421;-68
2024/03/09 11:29:17;;;;;;;2.83;2.10;;;21.30;55.10;;;;;;5063079;28;20884;-71
2024/03/09 11:31:43;;;;;;;2.53;1.87;;;21.30;55.10;;;;;;5045838;28;20438;-71
2024/03/09 11:34:17;;;;;;;3.47;2.33;;;21.30;55.10;;;;;;5066102;28;20443;-70
2024/03/09 11:36:45;;;;;;;2.67;2.13;;;21.30;55.10;;;;;;5059973;28;20202;-71
2024/03/09 11:39:12;;;;;;;2.70;2.40;;;21.30;55.10;;;;;;5070284;28;20408;-70
2024/03/09 11:41:46;;;;;;;2.70;1.90;;;21.30;55.10;;;;;;5058020;28;20456;-71
2024/03/09 11:44:43;;;;;;;2.20;1.83;;;21.30;55.10;;;;;;5067292;28;20421;-70
2024/03/09 11:47:09;;;;;;;2.30;2.07;;;21.30;55.10;;;;;;5069391;28;20912;-71
2024/03/09 11:49:36;;;;;;;3.17;2.30;;;21.30;55.10;;;;;;5057848;28;20473;-70
2024/03/09 11:52:05;;;;;;;4.77;2.50;;;21.30;55.10;;;;;;5068367;28;20421;-69
2024/03/09 11:54:32;;;;;;;2.70;2.40;;;21.30;55.10;;;;;;5064121;28;20821;-71
2024/03/09 11:56:58;;;;;;;1.87;1.67;;;21.30;55.10;;;;;;5060752;28;20424;-70
2024/03/09 11:59:25;;;;;;;2.20;2.00;;;21.30;55.10;;;;;;5071100;28;20408;-68
2024/03/09 12:02:02;;;;;;;3.27;2.27;;;21.30;55.10;;;;;;5058797;28;20483;-68
2024/03/09 12:04:29;;;;;;;2.73;2.53;;;21.30;55.10;;;;;;5064308;28;20436;-71
2024/03/09 12:06:55;;;;;;;4.30;2.03;;;21.30;55.10;;;;;;5060239;28;20500;-70
2024/03/09 12:09:21;;;;;;;2.60;2.10;;;21.30;55.10;;;;;;5069676;28;20503;-70
2024/03/09 12:11:47;;;;;;;3.70;2.37;;;21.30;55.10;;;;;;5057453;28;20181;-70
2024/03/09 12:14:13;;;;;;;4.53;2.80;;;21.30;55.10;;;;;;5066062;28;20445;-70
2024/03/09 12:16:40;;;;;;;5.03;2.23;;;21.30;55.10;;;;;;5063282;28;20421;-71
2024/03/09 12:19:06;;;;;;;4.60;2.37;;;21.30;55.10;;;;;;5055169;28;20199;-68
2024/03/09 12:21:36;;;;;;;3.20;2.33;;;21.30;55.10;;;;;;5044003;28;20478;-69
2024/03/09 12:24:03;;;;;;;4.90;2.10;;;21.30;55.20;;;;;;5052883;28;20437;-69
2024/03/09 12:26:29;;;;;;;2.30;2.10;;;21.30;55.20;;;;;;5048279;28;20422;-68
2024/03/09 12:28:59;;;;;;;4.27;2.40;;;21.30;55.20;;;;;;5051773;28;20497;-70
2024/03/09 12:31:25;;;;;;;2.43;2.20;;;21.30;55.20;;;;;;5048546;28;20171;-70
2024/03/09 12:33:55;;;;;;;2.93;2.00;;;21.30;55.20;;;;;;5053381;28;20437;-69
2024/03/09 12:36:21;;;;;;;5.60;2.37;;;21.30;55.20;;;;;;5053549;28;20421;-68
2024/03/09 12:38:48;;;;;;;2.57;2.10;;;21.30;55.20;;;;;;5053459;28;20405;-70
2024/03/09 12:41:32;;;;;;;3.63;2.33;;;21.30;55.20;;;;;;5053159;28;20445;-70
2024/03/09 12:44:03;;;;;;;5.10;3.17;;;21.30;55.20;;;;;;5053048;28;20425;-70
2024/03/09 12:46:30;;;;;;;7.63;3.47;;;21.30;55.20;;;;;;5052041;28;20794;-70
2024/03/09 12:48:59;;;;;;;6.47;3.10;;;21.30;55.20;;;;;;5050929;28;20479;-70